www.srh.weather.gov   
NOAA logo - Click to go to the NOAA homepage   NWS logo
Terminal Aerodrome Forecast
Enter Your "City, ST" or zip code   
Current Version              Previous Version:    01  02  03  04  05  06  07  08  09  10  11  12  13  14  15  16  17  18  19  20  21  22  23  24  25  26  27  28  29  30  
   31  32  33  34  35  36  37  38  39  40  41  42  43  44  45  46  47  48  49  50  51  52  53  54  55  56  57  58  59  60  
[Printable]
930
FTUS41 KCTP 260715 AAA
TAFLNS
TAF AMD
KLNS 260715Z 2607/2706 29005KT P6SM OVC060
     FM260730 28010G20KT P6SM SCT060
     FM261200 30015G30KT P6SM SKC=



930
FTUS41 KCTP 260715 AAA
TAFLNS
TAF AMD
KLNS 260715Z 2607/2706 29005KT P6SM OVC060
     FM260730 28010G20KT P6SM SCT060
     FM261200 30015G30KT P6SM SKC=

National Weather Service
Disclaimer
Last Modified: August 31, 2005
Privacy Policy